createdAt,value
2022-10-05T00:00:35.735Z,7.67
2022-10-05T00:02:33.996Z,7.68
2022-10-05T00:04:33.964Z,7.65
2022-10-05T00:06:33.662Z,7.64
2022-10-05T00:08:34.461Z,7.59
2022-10-05T00:10:32.786Z,7.54
2022-10-05T00:12:31.111Z,7.48
2022-10-05T00:14:32.138Z,7.41
2022-10-05T00:16:30.703Z,7.33
2022-10-05T00:18:28.923Z,7.28
2022-10-05T00:20:28.412Z,7.34
2022-10-05T00:22:33.046Z,7.36
2022-10-05T00:24:31.390Z,7.39
2022-10-05T00:26:34.447Z,7.38
2022-10-05T00:28:32.665Z,7.37
2022-10-05T00:30:35.182Z,7.27
2022-10-05T00:32:33.382Z,7.17
2022-10-05T00:34:35.145Z,7.12
2022-10-05T00:36:33.547Z,7.07
2022-10-05T00:38:34.494Z,7.04
2022-10-05T00:40:40.351Z,7.04
2022-10-05T00:42:49.858Z,7.09
2022-10-05T00:44:53.684Z,7.10
2022-10-05T00:46:57.467Z,7.09
2022-10-05T00:49:04.691Z,7.09
2022-10-05T00:51:13.984Z,7.05
2022-10-05T00:53:22.562Z,7.04
2022-10-05T00:55:29.209Z,7.02
2022-10-05T00:57:40.660Z,6.97
2022-10-05T00:59:50.925Z,6.92
2022-10-05T01:01:57.021Z,6.89
2022-10-05T01:04:05.375Z,6.94
2022-10-05T01:06:12.043Z,7.02
2022-10-05T01:08:23.889Z,7.03
2022-10-05T01:10:34.055Z,7.02
2022-10-05T01:12:39.306Z,7.02
2022-10-05T01:14:48.725Z,6.91
2022-10-05T01:16:53.268Z,6.81
2022-10-05T01:18:58.684Z,6.77
2022-10-05T01:20:59.515Z,6.78
2022-10-05T01:23:22.250Z,6.73
2022-10-05T01:25:31.855Z,6.59
2022-10-05T01:27:49.563Z,6.62
2022-10-05T01:29:54.760Z,6.68
2022-10-05T01:31:59.943Z,6.66
2022-10-05T01:34:18.224Z,6.66
2022-10-05T01:36:29.274Z,6.66
2022-10-05T01:38:40.058Z,6.66
2022-10-05T01:40:45.825Z,6.59
2022-10-05T01:42:58.251Z,6.48
2022-10-05T01:45:07.794Z,6.39
2022-10-05T01:47:11.058Z,6.42
2022-10-05T01:49:23.751Z,6.33
2022-10-05T01:51:32.023Z,6.27
2022-10-05T01:53:46.872Z,6.28
2022-10-05T01:55:54.150Z,6.31
2022-10-05T01:58:07.707Z,6.26
2022-10-05T02:00:10.559Z,6.12
2022-10-05T02:02:20.330Z,6.07
2022-10-05T02:04:56.887Z,6.11
2022-10-05T02:06:48.475Z,6.13
2022-10-05T02:08:49.953Z,6.10
2022-10-05T02:10:57.947Z,6.06
2022-10-05T02:13:07.531Z,6.09
2022-10-05T02:15:14.925Z,6.07
2022-10-05T02:17:16.268Z,6.04
2022-10-05T02:19:22.580Z,6.04
2022-10-05T02:21:22.548Z,6.09
2022-10-05T02:23:25.266Z,6.14
2022-10-05T02:25:30.034Z,6.11
2022-10-05T02:27:32.696Z,6.18
2022-10-05T02:29:36.104Z,6.18
2022-10-05T02:31:41.537Z,6.05
2022-10-05T02:33:40.675Z,5.94
2022-10-05T02:35:44.721Z,5.93
2022-10-05T02:37:54.352Z,5.93
2022-10-05T02:40:17.412Z,5.98
2022-10-05T02:42:25.352Z,6.00
2022-10-05T02:44:34.612Z,6.05
2022-10-05T02:46:41.775Z,6.06
2022-10-05T02:48:49.727Z,6.08
2022-10-05T02:50:54.864Z,6.11
2022-10-05T02:53:07.734Z,6.11
2022-10-05T02:55:17.651Z,6.00
2022-10-05T02:57:25.370Z,5.91
2022-10-05T02:59:32.838Z,5.88
2022-10-05T03:01:41.559Z,5.85
2022-10-05T03:03:44.330Z,5.82
2022-10-05T03:05:47.650Z,5.86
2022-10-05T03:07:56.586Z,5.89
2022-10-05T03:10:02.076Z,5.89
2022-10-05T03:12:11.961Z,5.96
2022-10-05T03:14:20.025Z,5.96
2022-10-05T03:16:31.994Z,6.00
2022-10-05T03:18:44.472Z,5.96
2022-10-05T03:20:49.891Z,5.88
2022-10-05T03:22:56.133Z,5.78
2022-10-05T03:25:14.783Z,5.72
2022-10-05T03:27:25.333Z,5.70
2022-10-05T03:29:35.112Z,5.78
2022-10-05T03:31:44.654Z,5.78
2022-10-05T03:33:54.389Z,5.72
2022-10-05T03:36:00.814Z,5.68
2022-10-05T03:38:10.130Z,5.62
2022-10-05T03:40:23.397Z,5.55
2022-10-05T03:42:31.701Z,5.46
2022-10-05T03:44:41.834Z,5.33
2022-10-05T03:47:08.929Z,5.26
2022-10-05T03:49:16.814Z,5.23
2022-10-05T03:51:22.713Z,5.19
2022-10-05T03:53:23.406Z,5.20
2022-10-05T03:55:30.389Z,5.23
2022-10-05T03:57:34.765Z,5.23
2022-10-05T03:59:40.411Z,5.24
2022-10-05T04:01:44.652Z,5.20
2022-10-05T04:03:47.325Z,5.09
2022-10-05T04:05:51.055Z,5.00
2022-10-05T04:07:57.781Z,4.96
2022-10-05T04:09:58.876Z,4.90
2022-10-05T04:12:20.245Z,4.87
2022-10-05T04:14:23.723Z,4.82
2022-10-05T04:16:27.960Z,4.80
2022-10-05T04:18:31.053Z,4.78
2022-10-05T04:20:36.694Z,4.79
2022-10-05T04:22:41.376Z,4.77
2022-10-05T04:24:45.386Z,4.81
2022-10-05T04:26:50.693Z,4.85
2022-10-05T04:28:57.368Z,4.89
2022-10-05T04:30:56.109Z,4.99
2022-10-05T04:32:57.294Z,5.08
2022-10-05T04:35:19.683Z,5.14
2022-10-05T04:37:24.836Z,5.17
2022-10-05T04:39:34.356Z,5.29
2022-10-05T04:41:45.921Z,5.33
2022-10-05T04:43:59.184Z,5.38
2022-10-05T04:46:14.625Z,5.50
2022-10-05T04:48:28.704Z,5.66
2022-10-05T04:50:41.617Z,5.71
2022-10-05T04:52:57.248Z,5.59
2022-10-05T04:55:06.218Z,5.73
2022-10-05T04:57:11.843Z,5.90
2022-10-05T04:59:36.802Z,6.44
2022-10-05T05:01:54.077Z,7.19
2022-10-05T05:04:12.738Z,8.07
2022-10-05T05:06:24.593Z,7.98
2022-10-05T05:08:39.942Z,7.71
2022-10-05T05:11:05.583Z,7.67
2022-10-05T05:13:17.829Z,7.92
2022-10-05T05:15:31.051Z,8.02
2022-10-05T05:17:47.815Z,8.02
2022-10-05T05:19:58.684Z,8.01
2022-10-05T05:22:04.061Z,8.03
2022-10-05T05:24:12.755Z,8.10
2022-10-05T05:26:23.494Z,8.44
2022-10-05T05:28:32.046Z,9.01
2022-10-05T05:30:41.979Z,9.40
2022-10-05T05:32:48.947Z,9.44
2022-10-05T05:35:04.435Z,9.74
2022-10-05T05:37:12.701Z,10.05
2022-10-05T05:39:25.169Z,10.37
2022-10-05T05:41:37.182Z,10.57
2022-10-05T05:43:51.380Z,10.83
2022-10-05T05:46:00.323Z,10.79
2022-10-05T05:48:04.142Z,10.63
2022-10-05T05:50:24.484Z,10.46
2022-10-05T05:52:29.854Z,10.47
2022-10-05T05:54:32.535Z,10.43
2022-10-05T05:56:38.941Z,10.22
2022-10-05T05:58:45.094Z,10.23
2022-10-05T06:00:48.072Z,10.17
2022-10-05T06:02:52.216Z,10.44
2022-10-05T06:04:55.855Z,11.05
2022-10-05T06:06:57.309Z,11.46
2022-10-05T06:08:59.155Z,11.74
2022-10-05T06:11:30.193Z,11.73
2022-10-05T06:13:35.407Z,11.69
2022-10-05T06:15:41.420Z,11.40
2022-10-05T06:17:44.768Z,11.23
2022-10-05T06:19:44.310Z,11.24
2022-10-05T06:21:47.624Z,11.66
2022-10-05T06:23:52.045Z,12.05
2022-10-05T06:26:10.428Z,12.32
2022-10-05T06:28:11.770Z,12.32
2022-10-05T06:30:19.676Z,12.17
2022-10-05T06:32:30.041Z,12.00
2022-10-05T06:34:45.340Z,11.93
2022-10-05T06:36:50.527Z,11.76
2022-10-05T06:39:07.388Z,11.73
2022-10-05T06:41:15.476Z,11.84
2022-10-05T06:43:29.981Z,11.73
2022-10-05T06:46:11.864Z,11.71
2022-10-05T06:48:32.544Z,12.09
2022-10-05T06:50:57.158Z,12.07
2022-10-05T06:53:34.029Z,11.85
2022-10-05T06:55:46.054Z,11.75
2022-10-05T06:58:01.187Z,12.03
2022-10-05T07:00:03.933Z,12.24
2022-10-05T07:02:15.834Z,12.26
2022-10-05T07:04:38.947Z,12.24
2022-10-05T07:06:41.758Z,12.84
2022-10-05T07:08:51.805Z,13.43
2022-10-05T07:11:03.140Z,13.31
2022-10-05T07:13:28.061Z,13.26
2022-10-05T07:15:42.654Z,13.36
2022-10-05T07:17:58.626Z,13.56
2022-10-05T07:20:09.741Z,14.15
2022-10-05T07:22:40.616Z,14.47
2022-10-05T07:24:43.993Z,14.87
2022-10-05T07:26:47.094Z,15.45
2022-10-05T07:28:51.157Z,15.57
2022-10-05T07:30:57.614Z,15.23
2022-10-05T07:33:05.509Z,14.78
2022-10-05T07:35:35.275Z,15.19
2022-10-05T07:37:58.024Z,15.17
2022-10-05T07:40:11.067Z,14.94
2022-10-05T07:42:19.488Z,14.98
2022-10-05T07:44:26.235Z,14.65
2022-10-05T07:46:33.615Z,14.76
2022-10-05T07:48:53.616Z,14.76
2022-10-05T07:51:03.031Z,14.62
2022-10-05T07:53:06.531Z,14.59
2022-10-05T07:55:14.372Z,14.40
2022-10-05T07:57:21.487Z,14.78
2022-10-05T07:59:29.015Z,14.64
2022-10-05T08:01:31.444Z,14.84
2022-10-05T08:03:45.801Z,14.87
2022-10-05T08:05:47.087Z,15.63
2022-10-05T08:07:45.395Z,15.84
2022-10-05T08:09:50.745Z,15.81
2022-10-05T08:11:57.654Z,16.56
2022-10-05T08:14:01.879Z,17.61
2022-10-05T08:16:05.693Z,18.79
2022-10-05T08:18:12.495Z,19.58
2022-10-05T08:20:29.535Z,18.88
2022-10-05T08:22:33.182Z,18.46
2022-10-05T08:24:45.675Z,18.33
2022-10-05T08:26:51.506Z,18.13
2022-10-05T08:29:00.435Z,17.20
2022-10-05T08:31:04.961Z,16.98
2022-10-05T08:33:10.654Z,17.01
2022-10-05T08:35:26.174Z,16.98
2022-10-05T08:37:28.619Z,16.90
2022-10-05T08:39:31.894Z,17.34
2022-10-05T08:42:08.938Z,16.84
2022-10-05T08:44:38.450Z,16.58
2022-10-05T08:47:12.060Z,17.91
2022-10-05T08:49:45.124Z,18.13
2022-10-05T08:52:19.541Z,18.55
2022-10-05T08:54:46.811Z,18.80
2022-10-05T08:56:50.665Z,18.71
2022-10-05T08:59:01.864Z,18.51
2022-10-05T09:01:11.378Z,18.36
2022-10-05T09:03:34.763Z,19.01
2022-10-05T09:06:14.650Z,17.97
2022-10-05T09:08:45.262Z,19.48
2022-10-05T09:11:11.553Z,21.02
2022-10-05T09:13:26.866Z,22.51
2022-10-05T09:15:47.554Z,24.98
2022-10-05T09:18:19.777Z,24.80
2022-10-05T09:20:32.234Z,25.53
2022-10-05T09:22:45.867Z,24.04
2022-10-05T09:24:56.766Z,24.26
2022-10-05T09:27:05.638Z,23.43
2022-10-05T09:29:25.798Z,24.16
2022-10-05T09:31:46.851Z,24.99
2022-10-05T09:34:10.299Z,23.94
2022-10-05T09:36:53.037Z,25.11
2022-10-05T09:39:24.219Z,25.41
2022-10-05T09:41:58.148Z,24.89
2022-10-05T09:44:36.348Z,25.82
2022-10-05T09:47:04.639Z,25.85
2022-10-05T09:49:23.554Z,26.32
2022-10-05T09:52:00.000Z,26.50
2022-10-05T09:54:29.027Z,27.43
2022-10-05T09:56:55.281Z,26.42
2022-10-05T09:59:17.333Z,27.48
2022-10-05T10:01:33.619Z,27.71
2022-10-05T10:04:10.297Z,27.51
2022-10-05T10:06:20.910Z,26.64
2022-10-05T10:08:30.548Z,27.61
2022-10-05T10:11:09.956Z,27.61
2022-10-05T10:13:28.751Z,26.74
2022-10-05T10:15:59.692Z,27.13
2022-10-05T10:18:28.374Z,27.25
2022-10-05T10:20:37.691Z,26.87
2022-10-05T10:23:13.538Z,26.57
2022-10-05T10:25:27.749Z,26.32
2022-10-05T10:27:48.055Z,25.88
2022-10-05T10:30:19.222Z,26.26
2022-10-05T10:32:51.009Z,25.89
2022-10-05T10:35:19.993Z,25.68
2022-10-05T10:37:47.893Z,24.50
2022-10-05T10:40:05.526Z,24.10
2022-10-05T10:42:26.058Z,23.18
2022-10-05T10:44:55.051Z,21.48
2022-10-05T10:47:19.003Z,19.84
2022-10-05T10:49:33.348Z,19.18
2022-10-05T10:51:58.099Z,18.96
2022-10-05T10:54:20.891Z,18.94
2022-10-05T10:56:45.282Z,19.08
2022-10-05T10:59:17.360Z,18.84
2022-10-05T11:01:30.868Z,18.82
2022-10-05T11:04:05.559Z,18.32
2022-10-05T11:06:28.128Z,17.83
2022-10-05T11:08:56.452Z,17.54
2022-10-05T11:11:13.459Z,17.40
2022-10-05T11:13:44.492Z,17.36
2022-10-05T11:18:20.254Z,17.72
2022-10-05T11:20:46.153Z,17.91
2022-10-05T11:23:00.418Z,17.57
2022-10-05T11:25:27.715Z,17.72
2022-10-05T11:27:49.207Z,17.97
2022-10-05T11:30:21.033Z,17.77
2022-10-05T11:32:41.209Z,17.62
2022-10-05T11:35:14.748Z,17.55
2022-10-05T11:37:46.521Z,17.41
2022-10-05T11:39:46.173Z,17.46
2022-10-05T11:42:17.346Z,17.39
2022-10-05T11:44:48.272Z,17.22
2022-10-05T11:46:55.947Z,17.43
2022-10-05T11:49:16.605Z,17.48
2022-10-05T11:51:42.262Z,17.55
2022-10-05T11:53:44.267Z,17.58
2022-10-05T11:55:46.907Z,17.40
2022-10-05T11:57:51.479Z,17.21
2022-10-05T11:59:59.381Z,17.14
2022-10-05T12:02:09.012Z,17.25
2022-10-05T12:04:16.297Z,17.35
2022-10-05T12:06:27.335Z,17.01
2022-10-05T12:08:32.923Z,17.02
2022-10-05T12:10:37.993Z,17.24
2022-10-05T12:12:40.641Z,17.28
2022-10-05T12:14:52.650Z,17.22
2022-10-05T12:16:57.182Z,17.07
2022-10-05T12:19:03.181Z,17.03
2022-10-05T12:21:06.146Z,17.16
2022-10-05T12:23:12.012Z,17.28
2022-10-05T12:25:22.793Z,17.36
2022-10-05T12:27:26.868Z,17.56
2022-10-05T12:29:26.951Z,17.48
2022-10-05T12:31:36.780Z,17.59
2022-10-05T12:33:39.867Z,17.70
2022-10-05T12:35:49.172Z,17.59
2022-10-05T12:37:54.505Z,17.43
2022-10-05T12:39:59.765Z,17.11
2022-10-05T12:42:11.385Z,17.07
2022-10-05T12:44:19.829Z,17.04
2022-10-05T12:46:28.520Z,17.08
2022-10-05T12:48:49.316Z,17.23
2022-10-05T12:50:51.244Z,17.18
2022-10-05T12:53:04.414Z,17.00
2022-10-05T12:55:11.781Z,16.90
2022-10-05T12:57:21.022Z,17.02
2022-10-05T12:59:31.811Z,17.02
2022-10-05T13:01:39.141Z,17.03
2022-10-05T13:03:40.539Z,16.94
2022-10-05T13:05:46.945Z,17.00
2022-10-05T13:08:01.745Z,16.99
2022-10-05T13:13:32.591Z,16.90
2022-10-05T13:15:58.441Z,16.87
2022-10-05T13:18:12.460Z,16.81
2022-10-05T13:20:45.631Z,16.80
2022-10-05T13:23:24.815Z,16.75
2022-10-05T13:26:00.343Z,16.75
2022-10-05T13:28:43.467Z,16.76
2022-10-05T13:30:53.952Z,16.75
2022-10-05T13:32:58.692Z,16.75
2022-10-05T13:35:12.747Z,16.73
2022-10-05T13:37:45.182Z,16.63
2022-10-05T13:40:05.900Z,16.59
2022-10-05T13:42:24.669Z,16.72
2022-10-05T13:44:32.132Z,16.66
2022-10-05T13:46:38.798Z,16.66
2022-10-05T13:48:56.810Z,16.70
2022-10-05T13:51:03.895Z,16.73
2022-10-05T13:53:12.474Z,16.72
2022-10-05T13:55:30.957Z,16.68
2022-10-05T13:57:46.124Z,16.58
2022-10-05T13:59:54.561Z,16.47
2022-10-05T14:01:59.757Z,16.44
2022-10-05T14:04:16.016Z,16.43
2022-10-05T14:06:27.790Z,16.42
2022-10-05T14:08:31.254Z,16.55
2022-10-05T14:10:41.923Z,16.63
2022-10-05T14:12:42.404Z,16.58
2022-10-05T14:14:46.289Z,16.66
2022-10-05T14:16:52.832Z,16.66
2022-10-05T14:18:58.552Z,16.56
2022-10-05T14:21:02.449Z,16.45
2022-10-05T14:23:03.457Z,16.32
2022-10-05T14:25:17.224Z,16.34
2022-10-05T14:27:23.476Z,16.33
2022-10-05T14:29:25.557Z,16.41
2022-10-05T14:31:31.059Z,16.42
2022-10-05T14:33:31.619Z,16.43
2022-10-05T14:35:32.027Z,16.42
2022-10-05T14:37:34.640Z,16.44
2022-10-05T14:39:36.199Z,16.39
2022-10-05T14:41:37.607Z,16.36
2022-10-05T14:43:38.794Z,16.36
2022-10-05T14:45:37.139Z,16.37
2022-10-05T14:47:35.517Z,16.30
2022-10-05T14:49:37.142Z,16.29
2022-10-05T14:51:36.466Z,16.25
2022-10-05T14:53:40.337Z,16.21
2022-10-05T14:55:51.643Z,16.15
2022-10-05T14:58:01.351Z,16.11
2022-10-05T15:00:05.574Z,16.09
2022-10-05T15:02:15.885Z,16.01
2022-10-05T15:04:30.571Z,15.94
2022-10-05T15:06:34.170Z,15.89
2022-10-05T15:08:51.200Z,15.86
2022-10-05T15:10:53.717Z,15.85
2022-10-05T15:12:52.959Z,15.83
2022-10-05T15:14:54.263Z,15.81
2022-10-05T15:16:58.909Z,15.81
2022-10-05T15:19:04.621Z,15.80
2022-10-05T15:21:22.606Z,15.78
2022-10-05T15:23:27.036Z,15.71
2022-10-05T15:25:33.777Z,15.68
2022-10-05T15:27:44.572Z,15.57
2022-10-05T15:30:01.495Z,15.52
2022-10-05T15:32:14.859Z,15.46
2022-10-05T15:34:19.301Z,15.45
2022-10-05T15:36:24.346Z,15.41
2022-10-05T15:38:25.726Z,15.35
2022-10-05T15:40:33.620Z,15.31
2022-10-05T15:42:38.394Z,15.21
2022-10-05T15:44:55.393Z,15.14
2022-10-05T15:46:58.282Z,15.06
2022-10-05T15:49:08.624Z,14.98
2022-10-05T15:51:18.918Z,14.83
2022-10-05T15:53:23.979Z,14.77
2022-10-05T15:55:28.709Z,14.65
2022-10-05T15:57:37.531Z,14.54
2022-10-05T15:59:44.251Z,14.52
2022-10-05T16:01:50.016Z,14.42
2022-10-05T16:03:52.210Z,14.41
2022-10-05T16:06:13.486Z,14.33
2022-10-05T16:08:42.442Z,14.26
2022-10-05T16:10:45.194Z,14.17
2022-10-05T16:12:52.911Z,14.15
2022-10-05T16:15:06.734Z,14.11
2022-10-05T16:17:22.253Z,14.00
2022-10-05T16:19:27.463Z,13.97
2022-10-05T16:21:33.383Z,13.91
2022-10-05T16:23:40.969Z,13.87
2022-10-05T16:25:48.275Z,13.85
2022-10-05T16:28:07.427Z,13.84
2022-10-05T16:30:10.537Z,13.82
2022-10-05T16:32:15.118Z,13.75
2022-10-05T16:34:25.607Z,13.66
2022-10-05T16:36:44.793Z,13.55
2022-10-05T16:38:50.732Z,13.48
2022-10-05T16:41:02.182Z,13.43
2022-10-05T16:43:12.243Z,13.36
2022-10-05T16:45:29.284Z,13.33
2022-10-05T16:47:44.034Z,13.33
2022-10-05T16:49:53.987Z,13.41
2022-10-05T16:51:59.185Z,13.44
2022-10-05T16:54:06.482Z,13.44
2022-10-05T16:56:11.136Z,13.44
2022-10-05T16:58:17.957Z,13.46
2022-10-05T17:00:22.117Z,13.44
2022-10-05T17:02:30.070Z,13.43
2022-10-05T17:04:41.540Z,13.29
2022-10-05T17:07:01.729Z,13.19
2022-10-05T17:09:18.901Z,13.12
2022-10-05T17:11:29.837Z,13.15
2022-10-05T17:13:46.624Z,13.19
2022-10-05T17:16:04.299Z,13.22
2022-10-05T17:18:17.768Z,13.22
2022-10-05T17:20:43.087Z,13.20
2022-10-05T17:22:52.285Z,13.17
2022-10-05T17:24:59.210Z,13.13
2022-10-05T17:27:18.101Z,13.08
2022-10-05T17:29:27.000Z,13.03
2022-10-05T17:31:26.856Z,12.93
2022-10-05T17:33:27.732Z,12.85
2022-10-05T17:35:42.139Z,12.78
2022-10-05T17:37:44.018Z,12.74
2022-10-05T17:39:51.536Z,12.72
2022-10-05T17:41:50.349Z,12.56
2022-10-05T17:44:20.688Z,12.47
2022-10-05T17:46:39.376Z,12.37
2022-10-05T17:49:01.460Z,12.27
2022-10-05T17:51:17.857Z,12.21
2022-10-05T17:53:40.924Z,12.13
2022-10-05T17:55:46.865Z,11.99
2022-10-05T17:57:45.154Z,11.88
2022-10-05T17:59:49.218Z,11.78
2022-10-05T18:02:21.338Z,11.79
2022-10-05T18:04:39.184Z,11.88
2022-10-05T18:06:39.270Z,11.77
2022-10-05T18:08:40.403Z,11.69
2022-10-05T18:10:41.299Z,11.55
2022-10-05T18:12:48.760Z,11.43
2022-10-05T18:15:01.314Z,11.33
2022-10-05T18:17:00.830Z,11.24
2022-10-05T18:18:59.680Z,11.21
2022-10-05T18:21:24.047Z,11.20
2022-10-05T18:23:35.989Z,11.18
2022-10-05T18:25:44.879Z,11.23
2022-10-05T18:28:00.953Z,11.16
2022-10-05T18:30:07.842Z,11.03
2022-10-05T18:32:15.198Z,10.92
2022-10-05T18:34:26.727Z,10.88
2022-10-05T18:36:57.942Z,10.85
2022-10-05T18:39:05.220Z,10.84
2022-10-05T18:41:10.266Z,10.88
2022-10-05T18:43:22.312Z,10.82
2022-10-05T18:45:27.208Z,10.76
2022-10-05T18:47:34.673Z,10.82
2022-10-05T18:49:49.302Z,10.87
2022-10-05T18:51:52.087Z,10.87
2022-10-05T18:54:07.052Z,10.92
2022-10-05T18:56:19.124Z,10.76
2022-10-05T18:58:22.650Z,10.64
2022-10-05T19:00:22.870Z,10.51
2022-10-05T19:02:27.345Z,10.35
2022-10-05T19:04:35.598Z,10.34
2022-10-05T19:06:43.491Z,10.41
2022-10-05T19:08:51.328Z,10.41
2022-10-05T19:10:56.180Z,10.45
2022-10-05T19:13:05.126Z,10.44
2022-10-05T19:15:15.813Z,10.44
2022-10-05T19:17:25.531Z,10.35
2022-10-05T19:19:44.156Z,10.20
2022-10-05T19:21:50.535Z,10.08
2022-10-05T19:24:04.548Z,10.01
2022-10-05T19:26:14.562Z,9.98
2022-10-05T19:28:24.743Z,10.03
2022-10-05T19:30:25.397Z,10.03
2022-10-05T19:32:32.863Z,10.02
2022-10-05T19:34:46.287Z,9.93
2022-10-05T19:36:59.471Z,9.83
2022-10-05T19:39:07.981Z,9.78
2022-10-05T19:41:15.286Z,9.73
2022-10-05T19:43:30.169Z,9.69
2022-10-05T19:45:31.047Z,9.75
2022-10-05T19:47:44.508Z,9.76
2022-10-05T19:49:50.916Z,9.82
2022-10-05T19:51:51.588Z,9.75
2022-10-05T19:53:52.095Z,9.67
2022-10-05T19:55:50.267Z,9.60
2022-10-05T19:57:49.891Z,9.54
2022-10-05T19:59:49.527Z,9.57
2022-10-05T20:01:51.691Z,9.50
2022-10-05T20:03:51.885Z,9.57
2022-10-05T20:05:50.373Z,9.62
2022-10-05T20:07:49.229Z,9.58
2022-10-05T20:09:53.392Z,9.58
2022-10-05T20:11:52.609Z,9.48
2022-10-05T20:14:20.491Z,9.41
2022-10-05T20:16:48.731Z,9.34
2022-10-05T20:19:07.068Z,9.32
2022-10-05T20:21:05.367Z,9.32
2022-10-05T20:23:23.109Z,9.42
2022-10-05T20:25:32.043Z,9.45
2022-10-05T20:27:45.469Z,9.53
2022-10-05T20:29:45.634Z,9.50
2022-10-05T20:31:45.636Z,9.36
2022-10-05T20:33:43.807Z,9.28
2022-10-05T20:35:41.912Z,9.20
2022-10-05T20:37:40.455Z,9.14
2022-10-05T20:39:39.417Z,9.08
2022-10-05T20:41:37.737Z,9.03
2022-10-05T20:43:38.983Z,9.07
2022-10-05T20:45:43.747Z,9.04
2022-10-05T20:47:43.443Z,9.05
2022-10-05T20:49:42.227Z,9.04
2022-10-05T20:51:40.613Z,9.08
2022-10-05T20:53:38.807Z,9.13
2022-10-05T20:55:36.957Z,9.10
2022-10-05T20:57:35.158Z,9.10
2022-10-05T20:59:34.633Z,8.97
2022-10-05T21:01:34.252Z,8.87
2022-10-05T21:03:33.861Z,8.87
2022-10-05T21:05:32.127Z,8.88
2022-10-05T21:07:30.304Z,8.90
2022-10-05T21:09:28.360Z,8.90
2022-10-05T21:11:28.253Z,8.90
2022-10-05T21:13:27.167Z,8.94
2022-10-05T21:15:25.461Z,8.96
2022-10-05T21:17:25.439Z,8.96
2022-10-05T21:19:24.825Z,8.87
2022-10-05T21:21:26.641Z,8.84
2022-10-05T21:23:25.675Z,8.78
2022-10-05T21:25:24.017Z,8.75
2022-10-05T21:27:22.205Z,8.70
2022-10-05T21:29:20.441Z,8.69
2022-10-05T21:31:18.964Z,8.73
2022-10-05T21:33:17.305Z,8.79
2022-10-05T21:35:18.142Z,8.80
2022-10-05T21:37:16.363Z,8.81
2022-10-05T21:39:14.730Z,8.76
2022-10-05T21:41:12.899Z,8.64
2022-10-05T21:43:11.075Z,8.57
2022-10-05T21:45:10.572Z,8.50
2022-10-05T21:47:08.651Z,8.45
2022-10-05T21:49:07.587Z,8.42
2022-10-05T21:51:09.645Z,8.42
2022-10-05T21:53:10.686Z,8.42
2022-10-05T21:55:09.951Z,8.50
2022-10-05T21:57:08.306Z,8.48
2022-10-05T21:59:09.904Z,8.45
2022-10-05T22:01:08.074Z,8.40
2022-10-05T22:03:06.499Z,8.35
2022-10-05T22:05:05.434Z,8.35
2022-10-05T22:07:18.142Z,8.30
2022-10-05T22:09:16.430Z,8.32
2022-10-05T22:11:16.514Z,8.32
2022-10-05T22:13:14.663Z,8.25
2022-10-05T22:15:13.003Z,8.25
2022-10-05T22:17:15.149Z,8.28
2022-10-05T22:19:17.593Z,8.28
2022-10-05T22:21:16.687Z,8.34
2022-10-05T22:23:16.210Z,8.36
2022-10-05T22:25:14.424Z,8.35
2022-10-05T22:27:13.043Z,8.33
2022-10-05T22:29:11.195Z,8.20
2022-10-05T22:31:10.701Z,8.12
2022-10-05T22:33:08.988Z,8.08
2022-10-05T22:35:11.531Z,8.03
2022-10-05T22:37:13.554Z,7.98
2022-10-05T22:39:13.240Z,7.98
2022-10-05T22:41:12.424Z,8.01
2022-10-05T22:43:10.612Z,8.01
2022-10-05T22:45:10.017Z,8.05
2022-10-05T22:47:08.122Z,8.06
2022-10-05T22:49:06.269Z,7.95
2022-10-05T22:51:05.111Z,7.86
2022-10-05T22:53:03.254Z,7.81
2022-10-05T22:55:02.899Z,7.76
2022-10-05T22:57:01.365Z,7.74
2022-10-05T22:58:59.535Z,7.79
2022-10-05T23:01:02.171Z,7.84
2022-10-05T23:03:00.520Z,7.88
2022-10-05T23:04:59.065Z,7.92
2022-10-05T23:06:57.501Z,7.92
2022-10-05T23:08:56.050Z,7.78
2022-10-05T23:10:55.571Z,7.72
2022-10-05T23:13:00.499Z,7.65
2022-10-05T23:14:59.293Z,7.59
2022-10-05T23:16:57.780Z,7.56
2022-10-05T23:18:56.499Z,7.61
2022-10-05T23:20:55.456Z,7.72
2022-10-05T23:22:53.819Z,7.72
2022-10-05T23:24:52.140Z,7.71
2022-10-05T23:26:51.836Z,7.73
2022-10-05T23:28:50.773Z,7.70
2022-10-05T23:30:48.949Z,7.62
2022-10-05T23:32:47.320Z,7.60
2022-10-05T23:34:45.647Z,7.57
2022-10-05T23:36:43.838Z,7.52
2022-10-05T23:38:42.095Z,7.46
2022-10-05T23:40:40.396Z,7.43
2022-10-05T23:42:40.077Z,7.53
2022-10-05T23:44:38.207Z,7.55
2022-10-05T23:46:36.613Z,7.56
2022-10-05T23:48:37.999Z,7.56
2022-10-05T23:50:36.294Z,7.56
2022-10-05T23:52:34.832Z,7.50
2022-10-05T23:54:32.861Z,7.42
2022-10-05T23:56:31.483Z,7.36
2022-10-05T23:58:31.551Z,7.32
